1949 Severe Tropical Cyclone NOT_NAMED (1949057S14156)


IBTrACS version v04r00. Visit IBTrACS website for data access.
Please direct all questions to the IBTrACS Q and A forum

Storm track - Intensity - Wind Radii - Intensity Data - Source Data - All data

Summary Information

Storm ID 1949057S14156
Start Feb 25 23Z
Landfall Mar 1 18Z
Max Intensity 70 kt (Mar 2 06Z), 972 mb (Mar 1 23Z)
End Mar 2 23Z
ATCF IDs ,SH171949
Track status Best track data.

Storm track plot

Map of storm track

Intensity plots

Map of storm track

Radial wind information

No radial wind information for this storm


Position and Intensity Table

BASIN ISO_TIME_________ NATURE LAT LON WMO PRES BOM PRES DS824 WIND DS824 PRES
degrees north degrees east mb mb kts mb
SP 1949-02-25 23:00:00 NR -13.95 156.05 1002 1002
SP 1949-02-26 00:00:00 TS -13.95 155.81 25 1002
SP 03:00:00 TS -13.95 155.11
SP 06:00:00 TS -13.98 154.41
SP 09:00:00 TS -14.07 153.74
SP 11:00:00 TS -14.17 153.29
SP 12:00:00 TS -14.22 153.07
SP 15:00:00 TS -14.41 152.39
SP 18:00:00 TS -14.64 151.79
SP 21:00:00 TS -14.90 151.31
SP 23:00:00 TS -15.08 151.10 1000 1000
SP 1949-02-27 00:00:00 TS -15.18 151.04
SP 03:00:00 TS -15.52 151.02
SP 06:00:00 TS -15.87 151.18
SP 07:00:00 TS -15.99 151.26
SP 09:00:00 TS -16.22 151.45
SP 11:00:00 TS -16.43 151.67
SP 12:00:00 TS -16.53 151.78
SP 15:00:00 TS -16.82 152.13
SP 18:00:00 TS -17.10 152.49
SP 21:00:00 TS -17.40 152.84
SP 23:00:00 TS -17.63 153.06 993 993
SP 1949-02-28 00:00:00 TS -17.76 153.16 40 993
SP 03:00:00 TS -18.23 153.39
SP 06:00:00 TS -18.74 153.55
SP 09:00:00 TS -19.24 153.67
SP 11:00:00 TS -19.59 153.71
SP 12:00:00 TS -19.76 153.73
SP 15:00:00 TS -20.26 153.73
SP 18:00:00 TS -20.77 153.66
SP 21:00:00 TS -21.27 153.54
SP 23:00:00 TS -21.61 153.42 990 990
SP 1949-03-01 00:00:00 TS -21.80 153.36
SP 03:00:00 TS -22.42 153.18
SP 06:00:00 TS -23.01 152.92
SP 09:00:00 TS -23.53 152.58
SP 10:00:00 TS -23.66 152.44
SP 11:00:00 TS -23.77 152.28
SP 12:00:00 TS -23.84 152.12
SP 15:00:00 TS -23.85 151.58
SP 18:00:00 TS -23.68 150.95
SP 20:00:00 TS -23.56 150.50
SP 21:00:00 TS -23.50 150.27
SP 23:00:00 TS -23.36 149.79 972 972
SP 1949-03-02 00:00:00 TS -23.29 149.56 972 60 980
SP 03:00:00 TS -23.09 148.87 972 65 976
SP 05:00:00 TS -22.96 148.24 972 972 68 973
SP 06:00:00 TS -22.88 147.56 70 972
SP 09:00:00 TS -22.77 146.36
SP 11:00:00 TS -22.78 145.72
SP 12:00:00 TS -22.82 145.39
SP 14:00:00 TS -22.97 144.73
SP 15:00:00 TS -23.09 144.39
SP 18:00:00 TS -23.48 143.37
SP 21:00:00 NR -23.98 142.30
SP 23:00:00 NR -24.30 141.60 990

Source Information

Agency Information
USA bsh171949.txt
TOKYO
CMA
HKO
NEWDELHI
REUNION
BOM IDCKMSTM0S.csv:Line=1528:unnamed
NADI
WELLINGTON
DS824 aus_area.dat:167:NOT NAMED
TD9636 cons_worldwide_trop_cyclone_18710101-19891231-006:Line=3439
TD9635
NEUMANN
MLC

All available IBTrACS Data

SEASON BASIN SUBBASIN ISO_TIME_________ NATURE LAT LON WMO PRES WMO AGENCY DIST2LAND LANDFALL IFLAG USA AGENCY USA ATCF_ID USA LAT USA LON USA SSHS BOM LAT BOM LON BOM PRES BOM PRES_METHOD DS824 LAT DS824 LON DS824 STAGE DS824 WIND DS824 PRES TD9636 LAT TD9636 LON TD9636 STAGE STORM SPEED STORM DIR
Year degrees north degrees east mb km km degrees north degrees east 1 degrees north degrees east mb degrees north degrees east kts mb degrees north degrees east kts degrees
1949 SP EA 1949-02-25 23:00:00 NR -13.95 156.05 1002 bom 610 610 ______O___O___ -1 -14.00 156.00 1002 -13.90 156.10 4 14 271
1949 SP EA 1949-02-26 00:00:00 TS -13.95 155.81 632 604 O_____P__OP___ jtwc_sh SH171949 -13.90 155.80 -1 -14.02 155.75 -14.00 155.80 TC 25 1002 -13.89 155.87 4 14 270
1949 SP EA 03:00:00 TS -13.95 155.11 604 561 P_____P__PP___ SH171949 -13.82 155.10 -1 -14.09 155.02 -14.13 155.16 TC -13.86 155.17 4 14 269
1949 SP EA 06:00:00 TS -13.98 154.41 553 515 O_____P__PP___ jtwc_sh SH171949 -13.80 154.40 -1 -14.16 154.30 -14.25 154.54 TC -13.87 154.45 4 13 265
1949 SP EA 09:00:00 TS -14.07 153.74 509 489 P_____P__PP___ SH171949 -13.90 153.71 -1 -14.25 153.63 -14.38 153.94 TC -13.92 153.71 4 13 260
1949 SP EA 11:00:00 TS -14.17 153.29 492 480 P_____P__PO___ SH171949 -14.03 153.24 -1 -14.31 153.22 -14.48 153.56 TC -14.00 153.20 4 13 257
1949 SP EA 12:00:00 TS -14.22 153.07 480 462 O_____P__PP___ jtwc_sh SH171949 -14.10 153.00 -1 -14.35 153.02 -14.52 153.37 TC -14.05 152.94 4 14 254
1949 SP EA 15:00:00 TS -14.41 152.39 463 458 P_____P__PP___ SH171949 -14.33 152.21 -1 -14.48 152.49 -14.67 152.87 TC -14.27 152.15 4 13 251
1949 SP EA 18:00:00 TS -14.64 151.79 462 462 O_____P__PP___ jtwc_sh SH171949 -14.60 151.50 -1 -14.64 152.06 -14.84 152.43 TC -14.54 151.45 4 12 245
1949 SP EA 21:00:00 TS -14.90 151.31 480 478 P_____P__PP___ SH171949 -14.88 150.92 -1 -14.84 151.74 -15.02 152.07 TC -14.87 150.91 4 10 236
1949 SP EA 23:00:00 TS -15.08 151.10 1000 bom 498 498 P_____O__PO___ SH171949 -15.09 150.67 -1 -15.00 151.60 1000 -15.15 151.88 TC -15.10 150.70 4 8 222
1949 SP EA 1949-02-27 00:00:00 TS -15.18 151.04 508 508 O_____P__PP___ jtwc_sh SH171949 -15.20 150.60 -1 -15.09 151.55 -15.22 151.80 TC -15.22 150.65 4 7 190
1949 SP EA 03:00:00 TS -15.52 151.02 541 541 P_____P__PP___ SH171949 -15.59 150.62 -1 -15.38 151.50 -15.45 151.64 TC -15.59 150.70 4 7 169
1949 SP EA 06:00:00 TS -15.87 151.18 551 542 O_____P__OP___ jtwc_sh SH171949 -16.00 150.90 -1 -15.69 151.56 -15.70 151.60 TC -15.98 150.95 4 8 154
1949 SP EA 07:00:00 TS -15.99 151.26 bom 548 534 P_____O__PP___ SH171949 -16.13 151.00 -1 -15.80 151.60 -15.79 151.62 TC -16.11 151.07 4 9 144
1949 SP EA 09:00:00 TS -16.22 151.45 534 526 P_____P__PP___ SH171949 -16.37 151.26 -1 -15.99 151.70 -15.98 151.69 TC -16.36 151.33 4 9 138
1949 SP EA 11:00:00 TS -16.43 151.67 532 523 P_____P__PO___ SH171949 -16.60 151.55 -1 -16.19 151.84 -16.19 151.81 TC -16.60 151.60 4 9 135
1949 SP EA 12:00:00 TS -16.53 151.78 530 518 O_____P__PP___ jtwc_sh SH171949 -16.70 151.70 -1 -16.29 151.92 -16.29 151.88 TC -16.70 151.71 4 9 131
1949 SP EA 15:00:00 TS -16.82 152.13 523 521 P_____P__PP___ SH171949 -16.96 152.11 -1 -16.59 152.21 -16.63 152.14 TC -16.96 152.10 4 9 130
1949 SP EA 18:00:00 TS -17.10 152.49 529 529 O_____P__PP___ jtwc_sh SH171949 -17.20 152.50 -1 -16.90 152.52 -16.97 152.43 TC -17.21 152.50 4 9 131
1949 SP EA 21:00:00 TS -17.40 152.84 531 531 P_____P__PP___ SH171949 -17.46 152.88 -1 -17.25 152.82 -17.33 152.73 TC -17.48 152.88 4 9 135
1949 SP EA 23:00:00 TS -17.63 153.06 993 bom 543 537 P_____O__PO___ SH171949 -17.67 153.10 -1 -17.50 153.00 993 -17.58 152.92 TC -17.70 153.10 4 9 141
1949 SP EA 1949-02-28 00:00:00 TS -17.76 153.16 540 532 O_____P__OP___ jtwc_sh SH171949 -17.80 153.20 -1 -17.64 153.06 -17.70 153.00 TC 40 993 -17.83 153.20 4 10 152
1949 SP EA 03:00:00 TS -18.23 153.39 536 506 P_____P__PP___ SH171949 -18.27 153.44 -1 -18.10 153.22 -18.19 153.12 TC -18.26 153.46 4 10 159
1949 SP EA 06:00:00 TS -18.74 153.55 506 474 O_____P__PP___ jtwc_sh SH171949 -18.80 153.60 -1 -18.60 153.34 -18.72 153.20 TC -18.75 153.65 4 11 165
1949 SP EA 09:00:00 TS -19.24 153.67 474 441 P_____P__PP___ SH171949 -19.30 153.74 -1 -19.12 153.43 -19.29 153.24 TC -19.26 153.77 4 10 169
1949 SP EA 11:00:00 TS -19.59 153.71 441 433 P_____P__PO___ SH171949 -19.63 153.79 -1 -19.48 153.48 -19.68 153.24 TC -19.60 153.80 4 10 174
1949 SP EA 12:00:00 TS -19.76 153.73 425 395 O_____P__PP___ jtwc_sh SH171949 -19.80 153.80 -1 -19.66 153.49 -19.88 153.24 TC -19.76 153.82 4 10 178
1949 SP EA 15:00:00 TS -20.26 153.73 388 361 P_____P__PP___ SH171949 -20.30 153.79 -1 -20.21 153.52 -20.48 153.20 TC -20.24 153.81 4 10 183
1949 SP EA 18:00:00 TS -20.77 153.66 354 314 O_____P__PP___ jtwc_sh SH171949 -20.80 153.70 -1 -20.75 153.53 -21.08 153.14 TC -20.74 153.72 4 10 190
1949 SP EA 21:00:00 TS -21.27 153.54 309 286 P_____P__PP___ SH171949 -21.28 153.54 -1 -21.27 153.52 -21.66 153.04 TC -21.25 153.55 4 10 195
1949 SP EA 23:00:00 TS -21.61 153.42 990 bom 286 278 P_____O__PO___ SH171949 -21.62 153.39 -1 -21.60 153.50 990 -22.03 152.95 TC -21.60 153.40 4 11 197
1949 SP EA 1949-03-01 00:00:00 TS -21.80 153.36 278 237 O_____P__PP___ jtwc_sh SH171949 -21.80 153.30 -1 -21.76 153.52 -22.21 152.91 TC -21.82 153.33 4 13 195
1949 SP EA 03:00:00 TS -22.42 153.18 237 166 P_____P__PP___ SH171949 -22.46 153.04 -1 -22.24 153.56 -22.72 152.76 TC -22.51 153.09 4 13 199
1949 SP EA 06:00:00 TS -23.01 152.92 166 105 O_____P__PP___ jtwc_sh SH171949 -23.10 152.70 -1 -22.69 153.53 -23.17 152.58 TC -23.17 152.76 4 12 206
1949 SP EA 09:00:00 TS -23.53 152.58 105 90 P_____P__PP___ SH171949 -23.68 152.30 -1 -23.08 153.38 -23.54 152.38 TC -23.68 152.34 4 12 214
1949 SP EA 10:00:00 TS -23.66 152.44 bom 75 60 P_____O__PP___ SH171949 -23.82 152.14 -1 -23.20 153.30 -23.65 152.31 TC -23.81 152.17 4 11 228
1949 SP EA 11:00:00 TS -23.77 152.28 60 45 P_____P__PO___ SH171949 -23.93 151.98 -1 -23.32 153.18 -23.75 152.24 TC -23.90 152.00 4 10 239
1949 SP EA 12:00:00 TS -23.84 152.12 45 22 O_____P__PP___ jtwc_sh SH171949 -24.00 151.80 -1 -23.44 153.05 -23.84 152.17 TC -23.93 151.83 4 10 263
1949 SP EA 15:00:00 TS -23.85 151.58 33 0 P_____P__PP___ SH171949 -23.90 151.25 -1 -23.74 152.55 -24.03 151.94 TC -23.85 151.25 4 11 278
1949 SP EA 18:00:00 TS -23.68 150.95 0 0 O_____P__PP___ jtwc_sh SH171949 -23.60 150.60 -1 -23.94 152.02 -24.12 151.70 TC -23.60 150.58 4 12 286
1949 SP EA 20:00:00 TS -23.56 150.50 bom 0 0 P_____O__PP___ SH171949 -23.42 150.10 -1 -24.00 151.70 -24.10 151.53 TC -23.39 150.09 4 13 287
1949 SP EA 21:00:00 TS -23.50 150.27 0 0 P_____P__PP___ SH171949 -23.33 149.84 -1 -24.03 151.56 -24.08 151.45 TC -23.29 149.83 4 14 287
1949 SP EA 23:00:00 TS -23.36 149.79 972 bom 0 0 P_____O__PO___ SH171949 -23.17 149.28 -1 -24.00 151.30 972 -23.97 151.28 TC -23.10 149.30 4 14 288
1949 SP EA 1949-03-02 00:00:00 TS -23.29 149.56 0 0 O_____P__OP___ jtwc_sh SH171949 -23.10 149.00 -1 -23.93 151.19 972 -23.90 151.20 TC 60 980 -23.04 149.04 4 13 288
1949 SP EA 03:00:00 TS -23.09 148.87 0 0 P_____P__PP___ SH171949 -22.97 148.17 -1 -23.54 150.94 972 -23.59 150.95 TC 65 976 -22.86 148.19 4 15 285
1949 SP EA 05:00:00 TS -22.96 148.24 972 bom 0 0 P_____O__PP___ SH171949 -22.92 147.60 -1 -23.20 150.80 972 4 -23.33 150.78 TC 68 973 -22.78 147.60 4 25 280
1949 SP EA 06:00:00 TS -22.88 147.56 0 0 O________OP___ jtwc_sh SH171949 -22.90 147.30 -1 -23.20 150.70 TC 70 972 -22.75 147.29 4 26 276
1949 SP EA 09:00:00 TS -22.77 146.36 0 0 P_________P___ SH171949 -22.79 146.37 -1 TC -22.73 146.35 4 20 273
1949 SP EA 11:00:00 TS -22.78 145.72 0 0 P_________O___ SH171949 -22.77 145.73 -1 TC -22.80 145.70 4 18 267
1949 SP EA 12:00:00 TS -22.82 145.39 0 0 O_________P___ jtwc_sh SH171949 -22.80 145.40 -1 -22.86 145.37 4 19 258
1949 SP EA 14:00:00 TS -22.97 144.73 bom 0 0 P_________P___ SH171949 -22.93 144.74 -1 -23.03 144.71 4 19 254
1949 SP EA 15:00:00 TS -23.09 144.39 0 0 P_________P___ SH171949 -23.03 144.41 -1 -23.14 144.37 4 20 248
1949 SP EA 18:00:00 TS -23.48 143.37 0 0 O_________P___ jtwc_sh SH171949 -23.40 143.40 -1 -23.53 143.34 4 21 245
1949 SP EA 21:00:00 NR -23.98 142.30 0 0 __________P___ SH171949 -1 -23.98 142.30 4 22 243
1949 SP EA 23:00:00 NR -24.30 141.60 990 bom 0 __________O___ SH171949 -1 -24.30 141.60 4 21 244